| time (UTC) | temp F | wind direction | speed knots | gust knots | rain 1hr in | rain 24hr in | rain mn in | humidity % | barometer mb |
| 20260507203106 | 63 | 108 | 0.9 | 1.7 | 0.00 | 0.00 | 0.00 | 56 | 1020.9 |
| 20260507201604 | 63 | 221 | 2.6 | 2.6 | 0.00 | 0.00 | 0.00 | 58 | 1021.0 |
| 20260507200059 | 64 | 207 | 2.6 | 3.5 | 0.00 | 0.00 | 0.00 | 57 | 1021.2 |
| 20260507194555 | 62 | 189 | 4.3 | 5.2 | 0.00 | 0.00 | 0.00 | 58 | 1021.5 |
| 20260507193051 | 61 | 314 | 3.5 | 3.5 | 0.00 | 0.00 | 0.00 | 62 | 1021.6 |
| 20260507191551 | 62 | 346 | 5.2 | 6.1 | 0.00 | 0.00 | 0.00 | 60 | 1021.6 |
| 20260507190051 | 59 | 102 | 1.7 | 2.6 | 0.00 | 0.00 | 0.00 | 64 | 1021.8 |
| 20260507184549 | 59 | 253 | 2.6 | 3.5 | 0.00 | 0.00 | 0.00 | 64 | 1022.0 |
| 20260507183045 | 57 | 275 | 3.5 | 3.5 | 0.00 | 0.00 | 0.00 | 66 | 1022.1 |
| 20260507181541 | 58 | 316 | 3.5 | 5.2 | 0.00 | 0.00 | 0.00 | 66 | 1022.1 |
| 20260507180036 | 57 | 82 | 3.5 | 3.5 | 0.00 | 0.00 | 0.00 | 68 | 1022.2 |
| 20260507174533 | 56 | 245 | 1.7 | 3.5 | 0.00 | 0.00 | 0.00 | 69 | 1022.4 |
| 20260507173031 | 57 | 88 | 1.7 | 1.7 | 0.00 | 0.00 | 0.00 | 68 | 1022.6 |
| 20260507171530 | 56 | 25 | 0.0 | 0.0 | 0.00 | 0.00 | 0.00 | 68 | 1022.5 |
| 20260507170027 | 55 | 1 | 3.5 | 3.5 | 0.00 | 0.00 | 0.00 | 70 | 1022.6 |
| 20260507164522 | 53 | 236 | 1.7 | 2.6 | 0.00 | 0.00 | 0.00 | 73 | 1022.6 |
| 20260507163020 | 53 | 142 | 0.9 | 0.9 | 0.00 | 0.00 | 0.00 | 72 | 1022.6 |
| 20260507161520 | 53 | 334 | 1.7 | 1.7 | 0.00 | 0.00 | 0.00 | 74 | 1022.6 |
| 20260507160015 | 52 | 240 | 0.0 | 0.9 | 0.00 | 0.00 | 0.00 | 76 | 1022.6 |
| 20260507154510 | 51 | 100 | 1.7 | 2.6 | 0.00 | 0.00 | 0.00 | 76 | 1022.5 |
| 20260507153006 | 51 | 350 | 3.5 | 3.5 | 0.00 | 0.00 | 0.00 | 77 | 1022.6 |
| 20260507151507 | 50 | 279 | 0.9 | 0.9 | 0.00 | 0.00 | 0.00 | 78 | 1022.6 |
| 20260507150003 | 50 | 281 | 0.0 | 0.9 | 0.00 | 0.00 | 0.00 | 78 | 1022.7 |
| 20260507144458 | 50 | 334 | 3.5 | 3.5 | 0.00 | 0.00 | 0.00 | 79 | 1022.6 |
| 20260507142955 | 50 | 90 | 0.0 | 0.0 | 0.00 | 0.00 | 0.00 | 79 | 1022.6 |
| 20260507141450 | 49 | 8 | 0.9 | 0.9 | 0.00 | 0.00 | 0.00 | 79 | 1022.5 |
| 20260507135947 | 49 | 286 | 1.7 | 1.7 | 0.00 | 0.00 | 0.00 | 79 | 1022.5 |
| 20260507134444 | 49 | 345 | 1.7 | 2.6 | 0.00 | 0.00 | 0.00 | 78 | 1022.4 |
| 20260507132941 | 50 | 272 | 2.6 | 2.6 | 0.00 | 0.00 | 0.00 | 78 | 1022.2 |
| 20260507131436 | 50 | 75 | 0.0 | 0.0 | 0.00 | 0.00 | 0.00 | 80 | 1022.4 |
| 20260507125935 | 50 | 295 | 0.9 | 0.9 | 0.00 | 0.00 | 0.00 | 79 | 1022.4 |
| 20260507124431 | 50 | 313 | 1.7 | 2.6 | 0.00 | 0.00 | 0.00 | 79 | 1022.3 |
| 20260507122929 | 50 | 299 | 2.6 | 3.5 | 0.00 | 0.00 | 0.00 | 79 | 1022.3 |
| 20260507121427 | 50 | 240 | 0.9 | 0.9 | 0.00 | 0.00 | 0.00 | 80 | 1022.4 |
| 20260507115922 | 50 | 256 | 0.0 | 0.0 | 0.00 | 0.00 | 0.00 | 80 | 1022.5 |
| 20260507114423 | 51 | 308 | 3.5 | 3.5 | 0.00 | 0.00 | 0.00 | 79 | 1022.6 |
| 20260507112920 | 51 | 306 | 2.6 | 2.6 | 0.00 | 0.00 | 0.00 | 80 | 1022.5 |
| 20260507111418 | 51 | 313 | 2.6 | 2.6 | 0.00 | 0.00 | 0.00 | 79 | 1022.4 |
| 20260507105912 | 51 | 289 | 0.9 | 0.9 | 0.00 | 0.00 | 0.00 | 79 | 1022.5 |
| 20260507104408 | 51 | 325 | 0.9 | 1.7 | 0.00 | 0.00 | 0.00 | 80 | 1022.7 |
| 20260507102909 | 51 | 302 | 0.9 | 1.7 | 0.00 | 0.00 | 0.00 | 80 | 1022.8 |
| 20260507101408 | 52 | 303 | 1.7 | 1.7 | 0.00 | 0.00 | 0.00 | 80 | 1022.9 |
| 20260507095907 | 52 | 347 | 1.7 | 1.7 | 0.00 | 0.00 | 0.00 | 80 | 1023.0 |
| 20260507094402 | 52 | 293 | 0.9 | 0.9 | 0.00 | 0.00 | 0.00 | 80 | 1023.0 |
| 20260507092901 | 52 | 297 | 1.7 | 2.6 | 0.00 | 0.00 | 0.00 | 81 | 1023.2 |
| 20260507091356 | 52 | 257 | 0.0 | 0.0 | 0.00 | 0.00 | 0.00 | 82 | 1023.0 |
| 20260507085851 | 52 | 308 | 0.9 | 0.9 | 0.00 | 0.00 | 0.00 | 81 | 1023.0 |
| 20260507084348 | 52 | 306 | 0.9 | 1.7 | 0.00 | 0.00 | 0.00 | 81 | 1023.3 |
| 20260507082844 | 53 | 306 | 1.7 | 1.7 | 0.00 | 0.00 | 0.00 | 81 | 1023.2 |
| 20260507081338 | 53 | 322 | 1.7 | 1.7 | 0.00 | 0.00 | 0.00 | 81 | 1023.3 |
| 20260507075833 | 53 | 315 | 1.7 | 2.6 | 0.00 | 0.00 | 0.00 | 81 | 1023.4 |
| 20260507074329 | 53 | 276 | 1.7 | 1.7 | 0.00 | 0.00 | 0.00 | 81 | 1023.3 |
| 20260507072826 | 53 | 334 | 1.7 | 1.7 | 0.00 | 0.00 | 0.00 | 81 | 1023.1 |
| 20260507071324 | 53 | 286 | 1.7 | 2.6 | 0.00 | 0.00 | 0.00 | 80 | 1023.1 |
| 20260507065820 | 53 | 11 | 2.6 | 3.5 | 0.00 | 0.00 | 0.00 | 80 | 1023.1 |
| 20260507064318 | 53 | 267 | 3.5 | 5.2 | 0.00 | 0.00 | 0.00 | 80 | 1023.2 |
| 20260507062814 | 53 | 333 | 2.6 | 2.6 | 0.00 | 0.00 | 0.00 | 80 | 1023.4 |
| 20260507061313 | 54 | 315 | 3.5 | 3.5 | 0.00 | 0.00 | 0.00 | 79 | 1023.2 |
| 20260507055810 | 54 | 224 | 1.7 | 1.7 | 0.00 | 0.00 | 0.00 | 79 | 1023.2 |
| 20260507054310 | 54 | 212 | 0.0 | 0.0 | 0.00 | 0.00 | 0.00 | 79 | 1023.2 |
| 20260507052810 | 55 | 313 | 1.7 | 1.7 | 0.00 | 0.00 | 0.00 | 80 | 1023.2 |
| 20260507051307 | 55 | 304 | 5.2 | 5.2 | 0.00 | 0.00 | 0.00 | 80 | 1023.0 |
| 20260507045803 | 55 | 321 | 3.5 | 5.2 | 0.00 | 0.00 | 0.00 | 79 | 1023.1 |
| 20260507044259 | 56 | 333 | 4.3 | 5.2 | 0.00 | 0.00 | 0.00 | 79 | 1023.0 |
| 20260507042754 | 56 | 9 | 3.5 | 6.1 | 0.00 | 0.00 | 0.00 | 79 | 1023.0 |
| 20260507041249 | 57 | 321 | 3.5 | 3.5 | 0.00 | 0.00 | 0.00 | 79 | 1022.8 |
| 20260507035745 | 57 | 291 | 3.5 | 3.5 | 0.00 | 0.00 | 0.00 | 79 | 1022.5 |
| 20260507034240 | 57 | 276 | 2.6 | 2.6 | 0.00 | 0.00 | 0.00 | 79 | 1022.4 |
| 20260507032739 | 58 | 340 | 4.3 | 6.1 | 0.00 | 0.00 | 0.00 | 78 | 1022.3 |
| 20260507031235 | 58 | 320 | 3.5 | 3.5 | 0.00 | 0.00 | 0.00 | 78 | 1022.0 |
| 20260507025732 | 59 | 315 | 2.6 | 5.2 | 0.00 | 0.00 | 0.00 | 76 | 1021.8 |
| 20260507024230 | 60 | 249 | 3.5 | 3.5 | 0.00 | 0.00 | 0.00 | 75 | 1021.7 |
| 20260507022726 | 61 | 314 | 5.2 | 6.1 | 0.00 | 0.00 | 0.00 | 73 | 1021.7 |
| 20260507021225 | 62 | 322 | 6.1 | 7.8 | 0.00 | 0.00 | 0.00 | 72 | 1021.8 |
| 20260507015723 | 63 | 327 | 5.2 | 7.0 | 0.00 | 0.00 | 0.00 | 74 | 1021.7 |
| 20260507014219 | 63 | 319 | 1.7 | 2.6 | 0.00 | 0.00 | 0.00 | 74 | 1021.9 |
| 20260507012716 | 64 | 351 | 1.7 | 2.6 | 0.00 | 0.00 | 0.00 | 72 | 1021.7 |
| 20260507011216 | 64 | 334 | 4.3 | 6.1 | 0.00 | 0.00 | 0.00 | 71 | 1021.9 |
| 20260507005715 | 64 | 323 | 2.6 | 2.6 | 0.00 | 0.00 | 0.00 | 70 | 1021.8 |
| 20260507004212 | 65 | 328 | 3.5 | 5.2 | 0.00 | 0.00 | 0.00 | 69 | 1021.9 |
| 20260507002710 | 67 | 320 | 0.9 | 1.7 | 0.00 | 0.00 | 0.00 | 64 | 1021.8 |
| 20260507001206 | 68 | 302 | 1.7 | 3.5 | 0.00 | 0.00 | 0.00 | 61 | 1021.8 |
| 20260506235701 | 67 | 225 | 0.9 | 0.9 | 0.00 | 0.00 | 0.00 | 62 | 1022.0 |
| 20260506234157 | 65 | 160 | 0.0 | 0.0 | 0.00 | 0.00 | 0.00 | 67 | 1022.1 |
| 20260506232653 | 65 | 266 | 2.6 | 2.6 | 0.00 | 0.00 | 0.00 | 67 | 1021.8 |
| 20260506231150 | 65 | 326 | 5.2 | 6.1 | 0.00 | 0.00 | 0.00 | 69 | 1022.2 |
| 20260506225646 | 64 | 283 | 3.5 | 5.2 | 0.00 | 0.00 | 0.00 | 71 | 1022.4 |
| 20260506224141 | 66 | 315 | 4.3 | 7.0 | 0.00 | 0.00 | 0.00 | 69 | 1022.4 |
| 20260506222637 | 64 | 220 | 0.0 | 0.9 | 0.00 | 0.00 | 0.00 | 68 | 1022.3 |
| 20260506221135 | 66 | 204 | 2.6 | 2.6 | 0.00 | 0.00 | 0.00 | 66 | 1022.7 |
| 20260506215635 | 64 | 236 | 1.7 | 1.7 | 0.00 | 0.00 | 0.00 | 70 | 1022.5 |
| 20260506214131 | 65 | 235 | 0.9 | 0.9 | 0.00 | 0.00 | 0.00 | 70 | 1022.6 |
| 20260506212629 | 63 | 318 | 1.7 | 2.6 | 0.00 | 0.00 | 0.00 | 74 | 1022.8 |
| 20260506211129 | 64 | 155 | 0.0 | 0.0 | 0.00 | 0.00 | 0.00 | 70 | 1022.8 |
| 20260506205625 | 63 | 279 | 0.9 | 0.9 | 0.00 | 0.00 | 0.00 | 72 | 1022.7 |
| 20260506204120 | 62 | 224 | 0.0 | 0.0 | 0.00 | 0.00 | 0.00 | 75 | 1022.8 |